createdAt,value
2018-11-22T10:36:06.744Z,759
2018-11-22T10:36:28.007Z,764
2018-11-22T10:36:49.008Z,768
2018-11-22T10:37:08.949Z,775
2018-11-22T10:37:28.818Z,788
2018-11-22T10:37:48.968Z,809
2018-11-22T10:38:08.849Z,833
2018-11-22T10:38:28.707Z,858
2018-11-22T10:38:48.471Z,884
2018-11-22T10:39:08.367Z,911
2018-11-22T10:39:28.238Z,937
2018-11-22T10:39:48.061Z,964
2018-11-22T10:40:07.959Z,991
2018-11-22T10:40:27.867Z,1021
2018-11-22T10:41:16.754Z,1116
2018-11-22T10:41:36.615Z,1167
2018-11-22T10:41:56.781Z,1241
2018-11-22T10:42:16.798Z,1363
2018-11-22T10:42:37.091Z,1537
2018-11-22T10:42:56.865Z,1855
2018-11-22T10:43:16.709Z,2347
2018-11-22T10:43:36.452Z,1984
2018-11-22T10:43:56.117Z,1818
2018-11-22T10:44:15.852Z,1822
2018-11-22T10:44:36.374Z,1861
2018-11-22T10:44:57.114Z,1915
2018-11-22T10:45:17.072Z,1825
2018-11-22T10:45:36.719Z,1820
2018-11-22T10:45:56.557Z,1975
2018-11-22T10:46:16.604Z,2235
2018-11-22T10:46:36.366Z,2889
2018-11-22T10:46:56.036Z,1865
2018-11-22T10:47:15.658Z,1831
2018-11-22T10:47:35.392Z,1747
2018-11-22T10:47:55.034Z,1705
2018-11-22T10:48:15.662Z,1621
2018-11-22T10:48:35.473Z,1617
2018-11-22T10:48:56.767Z,1602
2018-11-22T10:49:16.548Z,1590
2018-11-22T10:49:36.412Z,1627
2018-11-22T10:49:56.506Z,1585
2018-11-22T10:50:16.568Z,1558
2018-11-22T10:50:36.612Z,1518
2018-11-22T10:50:57.240Z,1486
2018-11-22T10:51:17.389Z,1469
2018-11-22T10:51:37.857Z,1827
2018-11-22T10:51:57.838Z,1416
2018-11-22T10:52:18.074Z,1414
2018-11-22T10:52:38.065Z,1744
2018-11-22T10:52:58.893Z,1434
2018-11-22T10:53:18.757Z,1573
2018-11-22T10:53:38.548Z,1465
2018-11-22T10:53:59.571Z,1339
2018-11-22T10:54:19.431Z,1477
2018-11-22T10:54:39.240Z,1358
2018-11-22T10:54:58.990Z,1253
2018-11-22T10:55:20.000Z,1236
2018-11-22T10:55:40.108Z,1209
2018-11-22T10:55:59.830Z,1195
2018-11-22T10:56:20.776Z,1189
2018-11-22T10:56:40.597Z,1186
2018-11-22T10:57:00.318Z,1182
2018-11-22T10:57:20.123Z,1176
2018-11-22T10:57:39.863Z,1169
2018-11-22T10:57:59.697Z,1163
2018-11-22T10:58:19.475Z,1155
2018-11-22T10:58:39.309Z,1148
2018-11-22T10:58:59.416Z,1145
2018-11-22T10:59:19.563Z,1143
2018-11-22T10:59:40.145Z,1146
2018-11-22T11:00:00.094Z,1228
2018-11-22T11:00:20.024Z,1251
2018-11-22T11:00:39.856Z,1157
2018-11-22T11:00:59.819Z,1145
2018-11-22T11:01:19.689Z,1133
2018-11-22T11:01:39.561Z,1122
2018-11-22T11:01:59.585Z,1110
2018-11-22T11:02:19.387Z,1102
2018-11-22T11:02:39.486Z,1101
2018-11-22T11:02:59.467Z,1095
2018-11-22T11:03:19.422Z,1089
2018-11-22T11:03:39.196Z,1082
2018-11-22T11:03:59.148Z,1069
2018-11-22T11:04:19.033Z,1056
2018-11-22T11:04:38.997Z,1046
2018-11-22T11:04:58.897Z,1037
2018-11-22T11:05:18.732Z,1031
2018-11-22T11:05:38.520Z,1025
2018-11-22T11:05:58.490Z,1023
2018-11-22T11:06:18.318Z,1021
2018-11-22T11:06:38.458Z,1022
2018-11-22T11:06:58.427Z,1030
2018-11-22T11:07:19.258Z,1049
2018-11-22T11:07:39.269Z,1065
2018-11-22T11:07:58.940Z,1084
2018-11-22T11:08:19.004Z,1118
2018-11-22T11:08:39.251Z,1137
2018-11-22T11:08:59.360Z,1135
2018-11-22T11:09:19.116Z,1140
2018-11-22T11:09:38.900Z,1137
2018-11-22T11:09:58.784Z,1129
2018-11-22T11:10:19.343Z,1123
2018-11-22T11:10:39.335Z,1119
2018-11-22T11:10:59.148Z,1116
2018-11-22T11:11:19.262Z,1104
2018-11-22T11:11:40.441Z,1091
2018-11-22T11:12:00.781Z,1076
2018-11-22T11:12:25.451Z,1060
2018-11-22T11:12:43.778Z,1045
2018-11-22T11:13:03.925Z,1035
2018-11-22T11:13:24.079Z,1028
2018-11-22T11:13:43.825Z,1024
2018-11-22T11:14:03.597Z,1020
2018-11-22T11:14:23.466Z,1017
2018-11-22T11:14:43.811Z,1017
2018-11-22T11:15:04.183Z,1018
2018-11-22T11:15:24.044Z,1017
2018-11-22T11:15:43.959Z,1015
2018-11-22T11:16:03.893Z,1016
2018-11-22T11:16:23.923Z,1019
2018-11-22T11:16:43.779Z,1029
2018-11-22T11:17:03.599Z,1038
2018-11-22T11:17:23.362Z,1046
2018-11-22T11:17:43.434Z,1059
2018-11-22T11:18:03.517Z,1071
2018-11-22T11:18:23.576Z,1075
2018-11-22T11:18:44.101Z,1079
2018-11-22T11:19:03.914Z,1086
2018-11-22T11:19:24.741Z,1092
2018-11-22T11:19:44.643Z,1097
2018-11-22T11:20:04.542Z,1099
2018-11-22T11:20:25.313Z,1101
2018-11-22T11:20:45.270Z,1105
2018-11-22T11:21:26.947Z,1110
2018-11-22T11:21:46.783Z,1110
2018-11-22T11:22:07.430Z,1115
2018-11-22T11:22:29.313Z,1125
2018-11-22T11:22:49.199Z,1138
2018-11-22T11:23:08.944Z,1149
2018-11-22T11:23:28.699Z,1162
2018-11-22T11:23:48.466Z,1171
2018-11-22T11:24:08.256Z,1181
2018-11-22T11:24:29.272Z,1195
2018-11-22T11:24:48.777Z,1212
2018-11-22T11:25:09.004Z,1236
2018-11-22T11:25:28.992Z,1249
2018-11-22T11:25:48.798Z,1240
2018-11-22T11:26:09.836Z,1234
2018-11-22T11:26:30.704Z,1231
2018-11-22T11:26:52.115Z,1239
2018-11-22T11:27:13.521Z,1248
2018-11-22T11:27:33.277Z,1254
2018-11-22T11:27:53.205Z,1258
2018-11-22T11:28:13.054Z,1250
2018-11-22T11:28:33.226Z,1240
2018-11-22T11:28:53.080Z,1236
2018-11-22T11:29:13.830Z,1237
2018-11-22T11:29:33.683Z,1242
2018-11-22T11:29:53.651Z,1251
2018-11-22T11:30:13.454Z,1259
2018-11-22T11:30:33.362Z,1259
2018-11-22T11:30:53.514Z,1251
2018-11-22T11:31:13.325Z,1262
2018-11-22T11:31:33.150Z,1286
2018-11-22T11:31:53.096Z,1287
2018-11-22T11:32:13.027Z,1298
2018-11-22T11:32:32.952Z,1304
2018-11-22T11:32:53.447Z,1317
2018-11-22T11:33:13.307Z,1329
2018-11-22T11:33:33.187Z,1348
2018-11-22T11:33:53.909Z,1366
2018-11-22T11:34:13.646Z,1441
2018-11-22T11:34:34.446Z,1428
2018-11-22T11:34:54.246Z,1466
2018-11-22T11:35:15.122Z,1399
2018-11-22T11:35:34.863Z,1407
2018-11-22T11:35:54.698Z,1388
2018-11-22T11:36:17.790Z,1365
2018-11-22T11:36:37.632Z,1345
2018-11-22T11:36:57.439Z,1328
2018-11-22T11:37:17.322Z,1320
2018-11-22T11:37:37.157Z,1299
2018-11-22T11:37:56.971Z,1294
2018-11-22T11:38:16.787Z,1291
2018-11-22T11:38:36.552Z,1285
2018-11-22T11:38:56.365Z,1270
2018-11-22T11:39:16.236Z,1261
2018-11-22T11:39:36.125Z,1246
2018-11-22T11:40:00.615Z,1236
2018-11-22T11:40:17.689Z,1227
2018-11-22T11:40:37.635Z,1225
2018-11-22T11:40:57.471Z,1223
2018-11-22T11:41:17.335Z,1222
2018-11-22T11:41:37.229Z,1229
2018-11-22T11:41:57.042Z,1236
2018-11-22T11:42:16.967Z,1243
2018-11-22T11:42:36.737Z,1256
2018-11-22T11:42:56.527Z,1269
2018-11-22T11:43:16.343Z,1272
2018-11-22T11:43:36.219Z,1278
2018-11-22T11:43:56.197Z,1276
2018-11-22T11:44:16.205Z,1273
2018-11-22T11:44:36.051Z,1266
2018-11-22T11:44:55.918Z,1253
2018-11-22T11:45:15.694Z,1239
2018-11-22T11:45:35.515Z,1229
2018-11-22T11:45:55.334Z,1218
2018-11-22T11:46:15.177Z,1202
2018-11-22T11:46:35.005Z,1198
2018-11-22T11:46:54.809Z,1186
2018-11-22T11:47:14.617Z,1182
2018-11-22T11:47:34.419Z,1177
2018-11-22T11:47:54.195Z,1170
2018-11-22T11:48:14.174Z,1156
2018-11-22T11:48:34.014Z,1140
2018-11-22T11:48:53.825Z,1126
2018-11-22T11:49:13.635Z,1112
2018-11-22T11:49:33.404Z,1102
2018-11-22T11:49:53.347Z,1095
2018-11-22T11:50:13.345Z,1088
2018-11-22T11:50:33.156Z,1077
2018-11-22T11:50:54.045Z,1067
2018-11-22T11:51:15.895Z,1056
2018-11-22T11:51:35.704Z,1049
2018-11-22T11:51:55.642Z,1041
2018-11-22T11:52:15.557Z,1032
2018-11-22T11:52:35.440Z,1027
2018-11-22T11:52:55.363Z,1022
2018-11-22T11:53:16.535Z,1018
2018-11-22T11:53:41.236Z,1014
2018-11-22T11:54:00.937Z,1011
2018-11-22T11:54:21.746Z,1006
2018-11-22T11:54:41.567Z,998
2018-11-22T11:55:01.465Z,995
2018-11-22T11:55:21.248Z,993
2018-11-22T11:55:41.029Z,994
2018-11-22T11:56:00.825Z,1000
2018-11-22T11:56:20.608Z,1009
2018-11-22T11:56:40.499Z,1019
2018-11-22T11:57:00.354Z,1028
2018-11-22T11:57:20.133Z,1040
2018-11-22T11:57:40.022Z,1054
2018-11-22T11:57:59.939Z,1061
2018-11-22T11:58:19.742Z,1065
2018-11-22T11:58:39.535Z,1067
2018-11-22T11:58:59.317Z,1058
2018-11-22T11:59:19.278Z,1055
2018-11-22T11:59:39.892Z,1043
2018-11-22T11:59:59.774Z,1039
2018-11-22T12:00:19.591Z,1040
2018-11-22T12:00:39.729Z,1042
2018-11-22T12:00:59.441Z,1043
2018-11-22T12:01:19.243Z,1050
2018-11-22T12:01:39.137Z,1069
2018-11-22T12:01:58.936Z,1090
2018-11-22T12:02:18.809Z,1118
2018-11-22T12:02:38.605Z,1129
2018-11-22T12:02:58.458Z,1143
2018-11-22T12:03:18.399Z,1136
2018-11-22T12:03:38.263Z,1151
2018-11-22T12:03:58.148Z,1131
2018-11-22T12:04:18.919Z,1100
2018-11-22T12:04:39.764Z,1091
2018-11-22T12:04:59.719Z,1080
2018-11-22T12:05:19.621Z,1070
2018-11-22T12:05:39.475Z,1049
2018-11-22T12:05:59.330Z,1037
2018-11-22T12:06:19.127Z,1029
2018-11-22T12:06:38.938Z,1027
2018-11-22T12:06:58.820Z,1041
2018-11-22T12:07:18.595Z,1058
2018-11-22T12:07:38.452Z,1085
2018-11-22T12:07:58.557Z,1109
2018-11-22T12:08:18.390Z,1136
2018-11-22T12:08:38.212Z,1181
2018-11-22T12:08:57.996Z,1345
2018-11-22T12:09:18.040Z,1266
2018-11-22T12:09:37.877Z,1280
2018-11-22T12:09:58.685Z,1300
2018-11-22T12:10:18.498Z,1292
2018-11-22T12:10:38.295Z,1273
2018-11-22T12:10:58.106Z,1266
2018-11-22T12:11:18.874Z,1262
2018-11-22T12:11:38.713Z,1241
2018-11-22T12:11:58.845Z,1237
2018-11-22T12:12:18.631Z,1233
2018-11-22T12:12:38.405Z,1248
2018-11-22T12:12:58.327Z,1266
2018-11-22T12:13:18.180Z,1246
2018-11-22T12:13:38.044Z,1417
2018-11-22T12:13:57.927Z,1268
2018-11-22T12:14:17.793Z,1275
2018-11-22T12:14:38.609Z,1263
2018-11-22T12:14:58.384Z,1252
2018-11-22T12:15:19.157Z,1235
2018-11-22T12:15:39.106Z,1223
2018-11-22T12:16:00.208Z,1227
2018-11-22T12:16:20.019Z,1230
2018-11-22T12:16:39.930Z,1206
2018-11-22T12:16:59.819Z,1205
2018-11-22T12:17:19.629Z,1208
2018-11-22T12:17:39.548Z,1215
2018-11-22T12:17:59.301Z,1227
2018-11-22T12:18:19.197Z,1233
2018-11-22T12:18:40.054Z,1236
2018-11-22T12:18:59.888Z,1241
2018-11-22T12:19:19.723Z,1235
2018-11-22T12:19:39.405Z,1211
2018-11-22T12:19:59.462Z,1203
2018-11-22T12:20:18.641Z,1202
2018-11-22T12:20:38.251Z,1204
2018-11-22T12:20:57.885Z,1200
2018-11-22T12:21:17.480Z,1196
2018-11-22T12:21:37.153Z,1184
2018-11-22T12:21:57.538Z,1181
2018-11-22T12:22:18.561Z,1191
2018-11-22T12:22:38.711Z,1257
2018-11-22T12:22:58.415Z,1323
2018-11-22T12:23:18.130Z,1364
2018-11-22T12:23:37.797Z,1276
2018-11-22T12:23:57.389Z,1288
2018-11-22T12:24:18.013Z,1252
2018-11-22T12:24:37.822Z,1284
2018-11-22T12:24:57.459Z,1361
2018-11-22T12:25:17.065Z,1249
2018-11-22T12:25:36.681Z,1221
2018-11-22T12:25:56.317Z,1165
2018-11-22T12:26:16.112Z,1167
2018-11-22T12:26:37.939Z,1217
2018-11-22T12:26:57.609Z,1389
2018-11-22T12:27:17.231Z,1517
2018-11-22T12:27:37.840Z,1364
2018-11-22T12:27:57.462Z,1233
2018-11-22T12:28:18.177Z,1173
2018-11-22T12:28:37.846Z,1155
2018-11-22T12:28:57.544Z,1114
2018-11-22T12:29:17.151Z,1086
2018-11-22T12:29:36.777Z,1064
2018-11-22T12:29:56.936Z,1045
2018-11-22T12:30:16.561Z,1029
2018-11-22T12:30:36.205Z,1014
2018-11-22T12:30:55.907Z,1003
2018-11-22T12:31:16.574Z,989
2018-11-22T12:31:36.176Z,978
2018-11-22T12:31:55.858Z,970
2018-11-22T12:32:15.576Z,968
2018-11-22T12:32:35.192Z,969
2018-11-22T12:32:54.906Z,978
2018-11-22T12:33:14.521Z,996
2018-11-22T12:33:34.186Z,1022
2018-11-22T12:33:53.864Z,1050
2018-11-22T12:34:13.542Z,1079
2018-11-22T12:34:34.349Z,1119
2018-11-22T12:34:54.026Z,1157
2018-11-22T12:35:13.643Z,1195
2018-11-22T12:35:33.266Z,1229
2018-11-22T12:35:52.916Z,1253
2018-11-22T12:36:12.629Z,1271
2018-11-22T12:36:32.277Z,1288
2018-11-22T12:36:52.092Z,1320
2018-11-22T12:37:11.777Z,1325
2018-11-22T12:37:31.383Z,1334
2018-11-22T12:37:52.062Z,1362
2018-11-22T12:38:11.760Z,1488
2018-11-22T12:38:32.403Z,1511
2018-11-22T12:38:52.857Z,1604
2018-11-22T12:39:12.461Z,1552
2018-11-22T12:39:32.074Z,1431
2018-11-22T12:39:51.707Z,1403
2018-11-22T12:40:11.325Z,1383
2018-11-22T12:40:31.136Z,1388
2018-11-22T12:40:51.707Z,1395
2018-11-22T12:41:11.335Z,1398
2018-11-22T12:41:31.178Z,1349
2018-11-22T12:41:50.817Z,1337
2018-11-22T12:42:10.583Z,1312
2018-11-22T12:42:30.234Z,1322
2018-11-22T12:42:49.840Z,1289
2018-11-22T12:43:09.671Z,1265
2018-11-22T12:43:29.325Z,1251
2018-11-22T12:43:49.080Z,1233
2018-11-22T12:44:08.725Z,1203
2018-11-22T12:44:28.322Z,1171
2018-11-22T12:44:48.001Z,1131
2018-11-22T12:45:08.605Z,1103
2018-11-22T12:45:28.351Z,1082
2018-11-22T12:45:48.799Z,1078
2018-11-22T12:46:07.575Z,1072
2018-11-22T12:46:27.211Z,1076
2018-11-22T12:46:46.843Z,1054
2018-11-22T12:47:07.487Z,1112
2018-11-22T12:47:27.147Z,1149
2018-11-22T12:47:47.317Z,1205
2018-11-22T12:48:07.313Z,1228
2018-11-22T12:48:26.929Z,1321
2018-11-22T12:48:46.542Z,1250
2018-11-22T12:49:06.225Z,1976
2018-11-22T12:49:27.350Z,1288
2018-11-22T12:49:47.854Z,1205
2018-11-22T12:50:07.465Z,1223
2018-11-22T12:50:27.265Z,1216
2018-11-22T12:50:46.886Z,1181
2018-11-22T12:51:06.805Z,1163
2018-11-22T12:51:26.750Z,1166
2018-11-22T12:51:46.447Z,1223
2018-11-22T12:52:06.352Z,1195
2018-11-22T12:52:26.102Z,1175
2018-11-22T12:52:45.825Z,1202
2018-11-22T12:53:05.514Z,1199
2018-11-22T12:53:25.315Z,1177
2018-11-22T12:53:45.510Z,1167
2018-11-22T12:54:05.180Z,1155
2018-11-22T12:54:25.034Z,1137
2018-11-22T12:54:44.709Z,1118
2018-11-22T12:55:04.400Z,1097
2018-11-22T12:55:24.026Z,1076
2018-11-22T12:55:44.803Z,1046
2018-11-22T12:56:04.543Z,1019
2018-11-22T12:56:25.480Z,989
2018-11-22T12:56:45.090Z,964
2018-11-22T12:57:04.713Z,947
2018-11-22T12:57:24.376Z,933
2018-11-22T12:57:44.031Z,921
2018-11-22T12:58:03.912Z,913
2018-11-22T12:58:23.605Z,907
2018-11-22T12:58:43.422Z,901
2018-11-22T12:59:03.118Z,895
2018-11-22T12:59:22.796Z,888
2018-11-22T12:59:43.404Z,880
2018-11-22T13:00:03.030Z,873
2018-11-22T13:00:22.624Z,867
2018-11-22T13:00:42.315Z,862
2018-11-22T13:01:01.927Z,855
2018-11-22T13:01:21.601Z,849
2018-11-22T13:01:41.373Z,843
2018-11-22T13:02:00.997Z,837
2018-11-22T13:02:20.670Z,833
2018-11-22T13:02:40.325Z,832
2018-11-22T13:03:00.015Z,826
2018-11-22T13:03:20.259Z,821
2018-11-22T13:03:40.866Z,814
2018-11-22T13:04:00.594Z,806
2018-11-22T13:04:20.218Z,798
2018-11-22T13:04:39.943Z,796
2018-11-22T13:04:59.694Z,797
2018-11-22T13:05:19.261Z,794
2018-11-22T13:05:38.872Z,789
2018-11-22T13:05:58.492Z,785
2018-11-22T13:06:18.094Z,774
2018-11-22T13:06:37.708Z,762
2018-11-22T13:06:57.421Z,750
2018-11-22T13:07:17.306Z,740
2018-11-22T13:07:37.018Z,731
2018-11-22T13:07:56.874Z,722
2018-11-22T13:08:16.480Z,712
2018-11-22T13:08:36.129Z,705
2018-11-22T13:08:55.870Z,702
2018-11-22T13:09:15.753Z,702
2018-11-22T13:09:35.500Z,705
2018-11-22T13:09:55.104Z,713
2018-11-22T13:10:14.928Z,720
2018-11-22T13:10:34.793Z,722
2018-11-22T13:10:54.442Z,724
2018-11-22T13:11:14.063Z,725
2018-11-22T13:11:34.649Z,731
2018-11-22T13:11:54.273Z,741
2018-11-22T13:12:13.903Z,748
2018-11-22T13:12:33.555Z,754
2018-11-22T13:12:53.204Z,766
2018-11-22T13:13:12.836Z,778
2018-11-22T13:13:32.483Z,784
2018-11-22T13:13:52.138Z,789
2018-11-22T13:14:11.847Z,789
2018-11-22T13:14:31.469Z,787
2018-11-22T13:14:51.084Z,786
2018-11-22T13:15:10.759Z,786
2018-11-22T13:15:30.393Z,790
2018-11-22T13:15:50.048Z,793
2018-11-22T13:16:10.008Z,795
2018-11-22T13:16:29.667Z,791
2018-11-22T13:16:49.461Z,784
2018-11-22T13:17:09.070Z,777
2018-11-22T13:17:28.742Z,770
2018-11-22T13:17:48.748Z,765
2018-11-22T13:18:08.545Z,759
2018-11-22T13:18:28.543Z,757
2018-11-22T13:18:48.686Z,753
2018-11-22T13:19:10.084Z,745
2018-11-22T13:19:29.815Z,737
2018-11-22T13:19:49.604Z,728
2018-11-22T13:20:09.334Z,720
2018-11-22T13:20:29.006Z,712
2018-11-22T13:20:48.675Z,706
2018-11-22T13:21:08.450Z,702
2018-11-22T13:21:28.378Z,692
2018-11-22T13:21:48.088Z,682
2018-11-22T13:22:07.766Z,670
2018-11-22T13:22:27.826Z,651
2018-11-22T13:22:47.506Z,630
2018-11-22T13:23:07.194Z,607
2018-11-22T13:23:27.118Z,583
2018-11-22T13:23:47.813Z,560
2018-11-22T13:24:07.527Z,545
2018-11-22T13:24:27.164Z,533
2018-11-22T13:24:46.812Z,524
2018-11-22T13:25:06.452Z,516
2018-11-22T13:25:28.388Z,511
2018-11-22T13:25:49.126Z,511
2018-11-22T13:26:09.069Z,512
2018-11-22T13:26:29.221Z,516
2018-11-22T13:26:50.146Z,522
2018-11-22T13:27:10.368Z,531
2018-11-22T13:27:30.890Z,537
2018-11-22T13:27:51.652Z,541
2018-11-22T13:28:11.736Z,548
2018-11-22T13:28:31.841Z,555
2018-11-22T13:28:52.040Z,562
2018-11-22T13:29:12.607Z,571
2018-11-22T13:29:32.676Z,579
2018-11-22T13:29:52.583Z,591
2018-11-22T13:30:14.323Z,602
2018-11-22T13:30:34.207Z,615
2018-11-22T13:30:54.023Z,626
2018-11-22T13:31:14.327Z,635
2018-11-22T13:31:36.194Z,642
2018-11-22T13:31:59.378Z,649
2018-11-22T13:32:22.061Z,653
2018-11-22T13:32:44.790Z,658
2018-11-22T13:33:05.817Z,666
2018-11-22T13:33:27.424Z,666
2018-11-22T13:33:47.722Z,659
2018-11-22T13:34:07.784Z,644
2018-11-22T13:34:27.633Z,623
2018-11-22T13:34:47.635Z,595
2018-11-22T13:35:07.691Z,571
2018-11-22T13:35:27.648Z,557
2018-11-22T13:35:47.895Z,547
2018-11-22T13:36:07.891Z,538
2018-11-22T13:36:27.973Z,530
2018-11-22T13:36:48.298Z,528
2018-11-22T13:37:08.250Z,530
2018-11-22T13:37:28.028Z,537
2018-11-22T13:37:48.032Z,548
2018-11-22T13:38:07.910Z,559
2018-11-22T13:38:27.629Z,563
2018-11-22T13:38:47.796Z,563
2018-11-22T13:39:07.432Z,560
2018-11-22T13:39:27.164Z,554
2018-11-22T13:39:46.811Z,549
2018-11-22T13:40:06.415Z,545
2018-11-22T13:40:26.070Z,537
2018-11-22T13:40:45.699Z,531
2018-11-22T13:41:05.341Z,529
2018-11-22T13:41:25.010Z,522
2018-11-22T13:41:44.655Z,520
2018-11-22T13:42:04.265Z,520
2018-11-22T13:42:23.959Z,519
2018-11-22T13:42:43.647Z,521
2018-11-22T13:43:03.316Z,528
2018-11-22T13:43:22.976Z,536
2018-11-22T13:43:42.608Z,543
2018-11-22T13:44:02.240Z,558
2018-11-22T13:44:21.932Z,574
2018-11-22T13:44:41.580Z,592
2018-11-22T13:45:01.234Z,611
2018-11-22T13:45:20.969Z,628
2018-11-22T13:45:40.609Z,643
2018-11-22T13:46:00.279Z,649
2018-11-22T13:46:19.957Z,647
2018-11-22T13:46:39.608Z,641
2018-11-22T13:46:59.244Z,632
2018-11-22T13:47:18.903Z,629
2018-11-22T13:47:38.643Z,625
2018-11-22T13:47:58.429Z,621
2018-11-22T13:48:18.084Z,612
2018-11-22T13:48:38.709Z,600
2018-11-22T13:48:58.336Z,584
2018-11-22T13:49:18.023Z,563
2018-11-22T13:49:37.677Z,534
2018-11-22T13:49:57.287Z,497
2018-11-22T13:50:16.963Z,455
2018-11-22T13:50:41.881Z,411
2018-11-22T13:50:58.178Z,369
2018-11-22T13:51:17.795Z,341
2018-11-22T13:51:37.415Z,319
2018-11-22T13:51:57.083Z,302
2018-11-22T13:52:16.760Z,289
2018-11-22T13:52:38.413Z,282
2018-11-22T13:52:58.084Z,284
2018-11-22T13:53:20.525Z,295
2018-11-22T13:53:39.334Z,314
2018-11-22T13:53:58.952Z,335
2018-11-22T13:54:18.586Z,357
2018-11-22T13:54:38.216Z,380
2018-11-22T13:54:57.860Z,398
2018-11-22T13:55:18.485Z,407
2018-11-22T13:55:38.261Z,410
2018-11-22T13:55:57.925Z,409
2018-11-22T13:56:17.565Z,408
2018-11-22T13:56:37.250Z,402
2018-11-22T13:56:57.043Z,399
2018-11-22T13:57:16.684Z,392
2018-11-22T13:57:36.426Z,383
2018-11-22T13:57:57.093Z,372
2018-11-22T13:58:16.749Z,359
2018-11-22T13:58:36.408Z,350
2018-11-22T13:58:56.046Z,342
2018-11-22T13:59:15.688Z,336
2018-11-22T13:59:35.368Z,333
2018-11-22T13:59:58.324Z,333
2018-11-22T14:00:17.679Z,329
2018-11-22T14:00:37.293Z,323
2018-11-22T14:00:56.934Z,317
2018-11-22T14:01:16.576Z,313
2018-11-22T14:01:36.215Z,311
2018-11-22T14:01:55.899Z,312
2018-11-22T14:02:15.540Z,313
2018-11-22T14:02:35.815Z,316
2018-11-22T14:02:55.501Z,316
2018-11-22T14:03:15.166Z,316
2018-11-22T14:03:34.780Z,317
2018-11-22T14:03:54.477Z,316
2018-11-22T14:04:14.184Z,316
2018-11-22T14:04:34.954Z,316
2018-11-22T14:04:54.577Z,315
2018-11-22T14:05:14.241Z,315
2018-11-22T14:05:33.859Z,311
2018-11-22T14:05:53.745Z,307
2018-11-22T14:06:14.088Z,308
2018-11-22T14:06:33.704Z,307
2018-11-22T14:06:53.324Z,305
2018-11-22T14:07:13.936Z,298
2018-11-22T14:07:33.565Z,292
2018-11-22T14:07:53.322Z,285
2018-11-22T14:08:12.993Z,280
2018-11-22T14:08:32.671Z,276
2018-11-22T14:08:52.499Z,273
2018-11-22T14:09:12.241Z,268
2018-11-22T14:09:32.273Z,263
2018-11-22T14:09:51.886Z,261
2018-11-22T14:10:11.570Z,263
2018-11-22T14:10:31.238Z,268
2018-11-22T14:10:50.862Z,275
2018-11-22T14:11:14.805Z,285
2018-11-22T14:11:34.106Z,293
2018-11-22T14:11:53.777Z,302
2018-11-22T14:12:13.833Z,308
2018-11-22T14:12:33.482Z,311
2018-11-22T14:12:53.355Z,311
2018-11-22T14:13:12.974Z,310
2018-11-22T14:13:32.583Z,309
2018-11-22T14:13:52.229Z,306
2018-11-22T14:14:11.895Z,301
2018-11-22T14:14:31.789Z,297
2018-11-22T14:14:51.436Z,292
2018-11-22T14:15:11.082Z,288
2018-11-22T14:15:31.694Z,283
2018-11-22T14:15:51.469Z,278
2018-11-22T14:16:11.089Z,276
2018-11-22T14:16:30.800Z,274
2018-11-22T14:16:50.512Z,275
2018-11-22T14:17:10.192Z,278
2018-11-22T14:17:29.879Z,281
2018-11-22T14:17:49.516Z,285
2018-11-22T14:18:09.236Z,287
2018-11-22T14:18:28.883Z,284
2018-11-22T14:18:48.510Z,275
2018-11-22T14:19:08.785Z,263
2018-11-22T14:19:28.427Z,248
2018-11-22T14:19:48.114Z,233
2018-11-22T14:20:07.749Z,220
2018-11-22T14:20:27.471Z,211
2018-11-22T14:20:47.097Z,204
2018-11-22T14:21:06.739Z,198
2018-11-22T14:21:26.442Z,195
2018-11-22T14:21:46.129Z,190
2018-11-22T14:22:05.848Z,188
2018-11-22T14:22:25.483Z,184
2018-11-22T14:22:45.144Z,184
2018-11-22T14:23:04.828Z,184
2018-11-22T14:23:24.506Z,188
2018-11-22T14:23:44.161Z,193
2018-11-22T14:24:04.482Z,200
2018-11-22T14:24:25.168Z,209
2018-11-22T14:24:44.850Z,217
2018-11-22T14:25:04.502Z,227
2018-11-22T14:25:24.919Z,233
2018-11-22T14:25:49.077Z,235
2018-11-22T14:26:07.487Z,232
2018-11-22T14:26:27.170Z,229
2018-11-22T14:26:46.868Z,227
2018-11-22T14:27:06.475Z,227
2018-11-22T14:27:26.147Z,227
2018-11-22T14:27:45.781Z,225
2018-11-22T14:28:05.645Z,224
2018-11-22T14:28:25.298Z,220
2018-11-22T14:28:45.792Z,217
2018-11-22T14:29:05.476Z,219
2018-11-22T14:29:25.247Z,223
2018-11-22T14:29:45.046Z,230
2018-11-22T14:30:04.845Z,240
2018-11-22T14:30:24.522Z,247
2018-11-22T14:30:44.202Z,251
2018-11-22T14:31:04.061Z,256
2018-11-22T14:31:23.865Z,257
2018-11-22T14:31:45.328Z,263
2018-11-22T14:32:05.565Z,274
2018-11-22T14:32:25.174Z,285
2018-11-22T14:32:45.128Z,297
2018-11-22T14:33:05.514Z,316
2018-11-22T14:33:25.097Z,337
2018-11-22T14:33:44.719Z,359
2018-11-22T14:34:04.335Z,375
2018-11-22T14:34:23.956Z,386
2018-11-22T14:34:44.347Z,393
2018-11-22T14:35:03.952Z,394
2018-11-22T14:35:23.620Z,391
2018-11-22T14:35:43.799Z,383
2018-11-22T14:36:03.706Z,377
2018-11-22T14:36:23.666Z,373
2018-11-22T14:36:43.544Z,366
2018-11-22T14:37:03.169Z,355
2018-11-22T14:37:22.792Z,343
2018-11-22T14:37:42.408Z,340
2018-11-22T14:38:02.053Z,342
2018-11-22T14:38:21.716Z,348
2018-11-22T14:38:41.455Z,356
2018-11-22T14:39:01.100Z,367
2018-11-22T14:39:21.915Z,378
2018-11-22T14:39:41.545Z,387
2018-11-22T14:40:01.183Z,394
2018-11-22T14:40:20.822Z,402
2018-11-22T14:40:40.800Z,405
2018-11-22T14:41:00.583Z,406
2018-11-22T14:41:20.738Z,408
2018-11-22T14:41:40.598Z,404
2018-11-22T14:42:00.256Z,402
2018-11-22T14:42:19.893Z,400
2018-11-22T14:42:39.514Z,405
2018-11-22T14:42:59.174Z,414
2018-11-22T14:43:18.968Z,423
2018-11-22T14:43:38.620Z,429
2018-11-22T14:43:58.319Z,436
2018-11-22T14:44:17.961Z,445
2018-11-22T14:44:37.705Z,452
2018-11-22T14:44:57.324Z,457
2018-11-22T14:45:16.958Z,456
2018-11-22T14:45:36.592Z,454
2018-11-22T14:45:56.257Z,451
2018-11-22T14:46:15.935Z,450
2018-11-22T14:46:35.593Z,450
2018-11-22T14:46:55.243Z,452
2018-11-22T14:47:16.633Z,451
2018-11-22T14:47:36.262Z,448
2018-11-22T14:47:56.911Z,439
2018-11-22T14:48:16.604Z,424
2018-11-22T14:48:36.223Z,410
2018-11-22T14:48:55.839Z,397
2018-11-22T14:49:16.473Z,383
2018-11-22T14:49:36.244Z,367
2018-11-22T14:49:55.831Z,357
2018-11-22T14:50:15.515Z,345
2018-11-22T14:50:35.247Z,335
2018-11-22T14:50:54.884Z,326
2018-11-22T14:51:14.564Z,319
2018-11-22T14:51:34.214Z,313
2018-11-22T14:51:53.867Z,304
2018-11-22T14:52:13.523Z,297
2018-11-22T14:52:33.203Z,293
2018-11-22T14:52:52.835Z,289
2018-11-22T14:53:12.456Z,286
2018-11-22T14:53:32.155Z,282
2018-11-22T14:53:51.815Z,276
2018-11-22T14:54:11.470Z,274
2018-11-22T14:54:31.145Z,274
2018-11-22T14:54:50.782Z,275
2018-11-22T14:55:10.489Z,275
2018-11-22T14:55:30.239Z,269
2018-11-22T14:55:49.964Z,265
2018-11-22T14:56:09.635Z,264
2018-11-22T14:56:29.260Z,262
2018-11-22T14:56:48.927Z,252
2018-11-22T14:57:08.547Z,243
2018-11-22T14:57:28.162Z,234
2018-11-22T14:57:47.785Z,224
2018-11-22T14:58:07.423Z,215
2018-11-22T14:58:27.150Z,209
2018-11-22T14:58:47.774Z,199
2018-11-22T14:59:07.399Z,192
2018-11-22T14:59:28.023Z,191
2018-11-22T14:59:47.683Z,191
2018-11-22T15:00:07.298Z,196
2018-11-22T15:00:27.007Z,201
2018-11-22T15:00:46.655Z,204
2018-11-22T15:01:07.244Z,210
2018-11-22T15:01:26.903Z,215
2018-11-22T15:01:46.523Z,222
2018-11-22T15:02:06.157Z,232
2018-11-22T15:02:25.820Z,236
2018-11-22T15:02:45.496Z,234
2018-11-22T15:03:05.142Z,227
2018-11-22T15:03:24.789Z,220
2018-11-22T15:03:44.542Z,214
2018-11-22T15:04:04.308Z,209
2018-11-22T15:04:23.870Z,208
2018-11-22T15:04:43.498Z,210
2018-11-22T15:05:03.151Z,213
2018-11-22T15:05:22.831Z,214
2018-11-22T15:05:42.484Z,215
2018-11-22T15:06:03.156Z,217
2018-11-22T15:06:22.753Z,217
2018-11-22T15:06:42.592Z,214
2018-11-22T15:07:02.271Z,213